Radar

Controlla il traffico aereo

Map and data supplied by Flightradar24.com

[Source: ADDS]
METAR
LIPY 202050Z 26006KT 9999 -RA BKN012 06/05 Q1009 =
LIPY 201700Z 2018/2118 34008KT 8000 BKN020 TEMPO 2018/2103 4000 RA
TAF
LIPY 201700Z 2018/2118 34008KT 8000 BKN020 TEMPO 2018/2103 4000 RA =
SR / SS: 06:08 / 15:38 UTC (Effemeridi 2018-11-20)

Abbiamo 190 visitatori e nessun utente online

 Quelli che il drone

   Strada della Marina, 1A

     60019 Senigallia AN, Italia

  Telefono: (+39) 338/6041090